Wetterdaten: Woche 30.07.07 - 05.08.07 (KW31)
Datum Zeit Temperatur Luftfeuchte Luftdruck Niederschlag
30.07.2007 00:00 14,3 C 91 % 0 hPa 1,0 l/m
30.07.2007 01:00 13,9 C 93 % 0 hPa 1,0 l/m
30.07.2007 02:00 13,1 C 91 % 0 hPa 2,0 l/m
30.07.2007 03:00 11,5 C 87 % 0 hPa 0,0 l/m
30.07.2007 04:00 11,1 C 89 % 0 hPa 0,0 l/m
30.07.2007 05:00 10,8 C 91 % 0 hPa 0,0 l/m
30.07.2007 06:00 9,9 C 91 % 0 hPa 0,0 l/m
30.07.2007 07:00 10,5 C 92 % 0 hPa 0,0 l/m
30.07.2007 08:00 11,7 C 85 % 0 hPa 0,0 l/m
30.07.2007 09:00 13,0 C 63 % 0 hPa 0,0 l/m
30.07.2007 10:00 14,5 C 50 % 0 hPa 0,0 l/m
30.07.2007 11:00 15,0 C 45 % 0 hPa 0,0 l/m
30.07.2007 12:00 16,2 C 38 % 0 hPa 0,0 l/m
30.07.2007 13:00 17,1 C 36 % 0 hPa 0,0 l/m
30.07.2007 14:00 17,5 C 34 % 0 hPa 0,0 l/m
30.07.2007 15:00 18,6 C 32 % 0 hPa 0,0 l/m
30.07.2007 16:00 18,2 C 32 % 0 hPa 0,0 l/m
30.07.2007 17:00 18,0 C 33 % 0 hPa 0,0 l/m
30.07.2007 18:00 18,9 C 32 % 0 hPa 0,0 l/m
30.07.2007 19:00 17,5 C 37 % 0 hPa 0,0 l/m
30.07.2007 20:00 15,3 C 45 % 0 hPa 0,0 l/m
30.07.2007 21:00 13,4 C 51 % 0 hPa 0,0 l/m
30.07.2007 22:00 11,6 C 61 % 0 hPa 0,0 l/m
30.07.2007 23:00 11,1 C 65 % 0 hPa 0,0 l/m
31.07.2007 00:00 10,2 C 69 % 0 hPa 0,0 l/m
31.07.2007 01:00 9,1 C 74 % 0 hPa 0,0 l/m
31.07.2007 02:00 8,3 C 78 % 0 hPa 0,0 l/m
31.07.2007 03:00 7,7 C 82 % 0 hPa 0,0 l/m
31.07.2007 04:00 7,7 C 85 % 0 hPa 0,0 l/m
31.07.2007 05:00 7,5 C 86 % 0 hPa 0,0 l/m
31.07.2007 06:00 7,4 C 87 % 0 hPa 0,0 l/m
31.07.2007 07:00 8,2 C 86 % 0 hPa 0,0 l/m
31.07.2007 08:00 10,2 C 80 % 0 hPa 0,0 l/m
31.07.2007 09:00 14,1 C 58 % 0 hPa 0,0 l/m
31.07.2007 10:00 16,5 C 45 % 0 hPa 0,0 l/m
31.07.2007 11:00 17,8 C 39 % 0 hPa 0,0 l/m
31.07.2007 12:00 18,0 C 38 % 0 hPa 0,0 l/m
31.07.2007 13:00 18,5 C 36 % 0 hPa 0,0 l/m
31.07.2007 14:00 19,2 C 34 % 0 hPa 0,0 l/m
31.07.2007 15:00 20,3 C 32 % 0 hPa 0,0 l/m
31.07.2007 16:00 20,3 C 32 % 0 hPa 0,0 l/m
31.07.2007 17:00 20,5 C 32 % 0 hPa 0,0 l/m
31.07.2007 18:00 20,6 C 31 % 0 hPa 0,0 l/m
31.07.2007 19:00 19,1 C 33 % 0 hPa 0,0 l/m
31.07.2007 20:00 16,9 C 37 % 0 hPa 0,0 l/m
31.07.2007 21:00 15,0 C 42 % 0 hPa 0,0 l/m
31.07.2007 22:00 13,3 C 47 % 0 hPa 0,0 l/m
31.07.2007 23:00 11,8 C 53 % 0 hPa 0,0 l/m
01.08.2007 00:00 10,7 C 59 % 0 hPa 0,0 l/m
01.08.2007 01:00 9,8 C 65 % 0 hPa 0,0 l/m
01.08.2007 02:00 9,4 C 67 % 0 hPa 0,0 l/m
01.08.2007 03:00 8,8 C 70 % 0 hPa 0,0 l/m
01.08.2007 04:00 8,4 C 71 % 0 hPa 0,0 l/m
01.08.2007 05:00 7,9 C 74 % 0 hPa 0,0 l/m
01.08.2007 06:00 7,4 C 77 % 0 hPa 0,0 l/m
01.08.2007 07:00 8,6 C 79 % 0 hPa 0,0 l/m
01.08.2007 08:00 12,2 C 62 % 0 hPa 0,0 l/m
01.08.2007 09:00 14,9 C 48 % 0 hPa 0,0 l/m
01.08.2007 10:00 16,8 C 44 % 0 hPa 0,0 l/m
01.08.2007 11:00 18,5 C 41 % 0 hPa 0,0 l/m
01.08.2007 12:00 20,0 C 36 % 0 hPa 0,0 l/m
01.08.2007 13:00 21,1 C 34 % 0 hPa 0,0 l/m
01.08.2007 14:00 22,5 C 32 % 0 hPa 0,0 l/m
01.08.2007 15:00 23,1 C 31 % 0 hPa 0,0 l/m
01.08.2007 16:00 23,8 C 31 % 0 hPa 0,0 l/m
01.08.2007 17:00 24,2 C 31 % 0 hPa 0,0 l/m
01.08.2007 18:00 24,1 C 31 % 0 hPa 0,0 l/m
01.08.2007 19:00 23,0 C 33 % 0 hPa 0,0 l/m
01.08.2007 20:00 21,1 C 39 % 0 hPa 0,0 l/m
01.08.2007 21:00 18,0 C 52 % 0 hPa 0,0 l/m
01.08.2007 22:00 15,5 C 63 % 0 hPa 0,0 l/m
01.08.2007 23:00 14,4 C 67 % 0 hPa 0,0 l/m
02.08.2007 00:00 13,8 C 71 % 0 hPa 0,0 l/m
02.08.2007 01:00 13,0 C 74 % 0 hPa 0,0 l/m
02.08.2007 02:00 12,5 C 77 % 0 hPa 0,0 l/m
02.08.2007 03:00 11,9 C 79 % 0 hPa 0,0 l/m
02.08.2007 04:00 11,7 C 81 % 0 hPa 0,0 l/m
02.08.2007 05:00 12,0 C 81 % 0 hPa 0,0 l/m
02.08.2007 06:00 12,3 C 85 % 0 hPa 0,0 l/m
02.08.2007 07:00 15,8 C 77 % 0 hPa 0,0 l/m
02.08.2007 08:00 16,6 C 74 % 0 hPa 0,0 l/m
02.08.2007 09:00 17,4 C 72 % 0 hPa 0,0 l/m
02.08.2007 10:00 19,6 C 61 % 0 hPa 0,0 l/m
02.08.2007 11:00 20,5 C 53 % 0 hPa 0,0 l/m
02.08.2007 12:00 19,6 C 59 % 0 hPa 0,0 l/m
02.08.2007 13:00 19,4 C 62 % 0 hPa 0,0 l/m
02.08.2007 14:00 20,5 C 55 % 0 hPa 0,0 l/m
02.08.2007 15:00 20,2 C 53 % 0 hPa 0,0 l/m
02.08.2007 16:00 19,4 C 59 % 0 hPa 0,0 l/m
02.08.2007 17:00 19,4 C 60 % 0 hPa 0,0 l/m
02.08.2007 18:00 20,1 C 57 % 0 hPa 0,0 l/m
02.08.2007 19:00 20,0 C 57 % 0 hPa 0,0 l/m
02.08.2007 20:00 18,6 C 64 % 0 hPa 0,0 l/m
02.08.2007 21:00 17,4 C 61 % 0 hPa 0,0 l/m
02.08.2007 22:00 15,0 C 79 % 0 hPa 1,0 l/m
02.08.2007 23:00 14,6 C 86 % 0 hPa 0,0 l/m
03.08.2007 00:00 14,5 C 91 % 0 hPa 5,0 l/m
03.08.2007 01:00 14,4 C 93 % 0 hPa 0,0 l/m
03.08.2007 02:00 14,4 C 94 % 0 hPa 0,0 l/m
03.08.2007 03:00 14,4 C 95 % 0 hPa 3,0 l/m
03.08.2007 04:00 14,4 C 95 % 0 hPa 1,0 l/m
03.08.2007 05:00 14,1 C 96 % 0 hPa 0,0 l/m
03.08.2007 06:00 13,8 C 96 % 0 hPa 0,0 l/m
03.08.2007 07:00 14,1 C 96 % 0 hPa 0,0 l/m
03.08.2007 08:00 14,4 C 97 % 0 hPa 0,0 l/m
03.08.2007 09:00 14,9 C 96 % 0 hPa 0,0 l/m
03.08.2007 10:00 15,8 C 92 % 0 hPa 0,0 l/m
03.08.2007 11:00 16,5 C 79 % 0 hPa 0,0 l/m
03.08.2007 12:00 17,3 C 69 % 0 hPa 0,0 l/m
03.08.2007 13:00 17,0 C 71 % 0 hPa 0,0 l/m
03.08.2007 14:00 17,0 C 77 % 0 hPa 0,0 l/m
03.08.2007 15:00 18,3 C 68 % 0 hPa 4,0 l/m
03.08.2007 16:00 16,2 C 80 % 0 hPa 3,0 l/m
03.08.2007 17:00 17,2 C 79 % 0 hPa 0,0 l/m
03.08.2007 18:00 16,6 C 81 % 0 hPa 0,0 l/m
03.08.2007 19:00 16,1 C 83 % 0 hPa 0,0 l/m
03.08.2007 20:00 15,6 C 87 % 0 hPa 0,0 l/m
03.08.2007 21:00 14,8 C 90 % 0 hPa 0,0 l/m
03.08.2007 22:00 14,6 C 93 % 0 hPa 0,0 l/m
03.08.2007 23:00 14,3 C 94 % 0 hPa 0,0 l/m
04.08.2007 00:00 14,2 C 95 % 0 hPa 0,0 l/m
04.08.2007 01:00 14,0 C 95 % 0 hPa 0,0 l/m
04.08.2007 02:00 13,2 C 96 % 0 hPa 0,0 l/m
04.08.2007 03:00 12,6 C 96 % 0 hPa 0,0 l/m
04.08.2007 04:00 12,6 C 97 % 0 hPa 0,0 l/m
04.08.2007 05:00 12,3 C 97 % 0 hPa 0,0 l/m
04.08.2007 06:00 11,7 C 98 % 0 hPa 0,0 l/m
04.08.2007 07:00 11,5 C 98 % 0 hPa 0,0 l/m
04.08.2007 08:00 12,2 C 98 % 0 hPa 0,0 l/m
04.08.2007 09:00 15,4 C 97 % 0 hPa 0,0 l/m
04.08.2007 10:00 18,6 C 78 % 0 hPa 0,0 l/m
04.08.2007 11:00 20,6 C 52 % 0 hPa 0,0 l/m
04.08.2007 12:00 21,2 C 46 % 0 hPa 0,0 l/m
04.08.2007 13:00 22,3 C 42 % 0 hPa 0,0 l/m
04.08.2007 14:00 23,0 C 37 % 0 hPa 0,0 l/m
04.08.2007 15:00 24,0 C 33 % 0 hPa 0,0 l/m
04.08.2007 16:00 24,4 C 32 % 0 hPa 0,0 l/m
04.08.2007 17:00 24,4 C 32 % 0 hPa 0,0 l/m
04.08.2007 18:00 24,0 C 32 % 0 hPa 0,0 l/m
04.08.2007 19:00 22,9 C 34 % 0 hPa 0,0 l/m
04.08.2007 20:00 20,8 C 45 % 0 hPa 0,0 l/m
04.08.2007 21:00 17,6 C 60 % 0 hPa 0,0 l/m
04.08.2007 22:00 15,7 C 70 % 0 hPa 0,0 l/m
04.08.2007 23:00 14,6 C 74 % 0 hPa 0,0 l/m
05.08.2007 00:00 13,9 C 77 % 0 hPa 0,0 l/m
05.08.2007 01:00 13,4 C 80 % 0 hPa 0,0 l/m
05.08.2007 02:00 12,9 C 82 % 0 hPa 0,0 l/m
05.08.2007 03:00 12,5 C 84 % 0 hPa 0,0 l/m
05.08.2007 04:00 12,1 C 86 % 0 hPa 0,0 l/m
05.08.2007 05:00 11,6 C 88 % 0 hPa 0,0 l/m
05.08.2007 06:00 11,4 C 90 % 0 hPa 0,0 l/m
05.08.2007 07:00 12,5 C 92 % 0 hPa 0,0 l/m
05.08.2007 08:00 15,4 C 82 % 0 hPa 0,0 l/m
05.08.2007 09:00 18,9 C 61 % 0 hPa 0,0 l/m
05.08.2007 10:00 21,2 C 46 % 0 hPa 0,0 l/m
05.08.2007 11:00 23,1 C 37 % 0 hPa 0,0 l/m
05.08.2007 12:00 24,1 C 33 % 0 hPa 0,0 l/m
05.08.2007 13:00 24,9 C 32 % 0 hPa 0,0 l/m
05.08.2007 14:00 25,6 C 31 % 0 hPa 0,0 l/m
05.08.2007 15:00 26,0 C 30 % 0 hPa 0,0 l/m
05.08.2007 16:00 26,3 C 30 % 0 hPa 0,0 l/m
05.08.2007 17:00 26,1 C 28 % 0 hPa 0,0 l/m
05.08.2007 18:00 25,7 C 28 % 0 hPa 0,0 l/m
05.08.2007 19:00 24,4 C 31 % 0 hPa 0,0 l/m
05.08.2007 20:00 22,6 C 33 % 0 hPa 0,0 l/m
05.08.2007 21:00 20,2 C 40 % 0 hPa 0,0 l/m
05.08.2007 22:00 17,5 C 50 % 0 hPa 0,0 l/m
05.08.2007 23:00 16,0 C 55 % 0 hPa 0,0 l/m
Min-Datum _ 31.07.07 05.08.07 30.07.07 -
_ Min-Zeit 06:00 17:48 00:00 -
Minimum _ 7,3 C 26 % 0 hPa -
Max-Datum _ 05.08.07 04.08.07 30.07.07 03.08.07
_ Max-Zeit 16:30 05:54 00:00 00:35
Maximum _ 26,4 C 98 % 0 hPa 5,0 l/m
Durchschnitt _ 16,2 C 64 % 0 hPa #21,0 l/m

Durchschnitt Minimum Temp.15,7 C
Durchschnitt Maximum Temp.16,7 C